Montauk — 9HHE8 — position and weather

sailwx.info

Track history (hours):
 
Tides and Currents Weather Stations Pressure Air Temp Water Temp Dewpoint Dewpoint Depression Visibility Wind Speed Wind Dir Waves Ship Positions

Montauk

Last reported at 2016-Aug-24 00:33 UTC. Time now 2016-Aug-24 01:35 UTC.
Position S 05°07' E 011°12'.

Length 106 m; draft 6 m.

Type: Tanker. MMSI: 215978000.

Date/timePositionNaut miles runAvg speedWind from/ knotsBaromVisibWave heightAir tempDewpointWater temp
2016-Aug-24 00:33S 05°07' E 011°12'2 2.3
2016-Aug-23 23:33S 05°05' E 011°14'2 2.2
2016-Aug-23 22:33S 05°03' E 011°15'2 1.9
2016-Aug-23 21:33S 05°02' E 011°16'2 1.7
2016-Aug-23 20:33S 05°00' E 011°17'1 1.1
2016-Aug-23 19:31S 04°59' E 011°18'0 0.2
2016-Aug-23 18:33S 04°59' E 011°18'0 0.1
2016-Aug-23 17:33S 04°59' E 011°18'4 3.8
2016-Aug-23 16:33S 04°59' E 011°14'10 9.7
2016-Aug-23 15:33S 05°02' E 011°05'19 7.7
2016-Aug-23 13:04S 05°11' E 010°48'0 0.5
2016-Aug-23 12:25S 05°11' E 010°48'0 0.6
2016-Aug-23 11:33S 05°11' E 010°48'1 0.5
2016-Aug-23 10:33S 05°11' E 010°49'0 0.5
2016-Aug-23 09:33S 05°12' E 010°49'1 0.5
2016-Aug-23 08:33S 05°12' E 010°49'1 0.6
2016-Aug-23 07:33S 05°12' E 010°50'0 0.4
2016-Aug-23 06:33S 05°13' E 010°50'0 0.4
2016-Aug-23 05:28S 05°13' E 010°50'0 0.4
2016-Aug-23 04:24S 05°14' E 010°51'3 0.2
2016-Aug-22 09:24S 05°15' E 010°53'4 0.2
2016-Aug-21 15:21S 05°11' E 010°53'7 1.2
2016-Aug-21 09:16S 05°07' E 010°47'1 0.8
2016-Aug-21 08:33S 05°07' E 010°47'1 0.8
2016-Aug-21 07:04S 05°08' E 010°48'0 0.9
2016-Aug-21 06:33S 05°08' E 010°49'1 1.1
2016-Aug-21 05:29S 05°09' E 010°49'1 1.2
2016-Aug-21 04:33S 05°10' E 010°50'1 1.2
2016-Aug-21 03:33S 05°11' E 010°51'1 1.2
2016-Aug-21 02:33S 05°12' E 010°52'1 1.2
2016-Aug-21 01:32S 05°13' E 010°53'1 1.3
2016-Aug-21 00:31S 05°14' E 010°53'0 0.1
2016-Aug-20 22:27S 05°14' E 010°54'5 5.3
2016-Aug-20 21:33S 05°11' E 010°50'4 0.6
2016-Aug-20 15:31S 05°08' E 010°47'3 1.1
2016-Aug-20 12:28S 05°11' E 010°49'16 1.0
2016-Aug-19 21:25S 05°08' E 011°05'8 8.7
2016-Aug-19 20:33S 05°07' E 011°12'9 8.9
2016-Aug-19 19:33S 05°05' E 011°21'8 8.4
2016-Aug-19 18:33S 05°02' E 011°29'  
2016-Aug-16 09:05S 05°03' E 011°30'4 8.2
2016-Aug-16 08:33S 05°04' E 011°26'8 8.2
2016-Aug-16 07:34S 05°06' E 011°18'28 8.4
2016-Aug-16 04:15S 05°16' E 010°52'9 0.9
2016-Aug-15 18:12S 05°08' E 010°56'  
Track history (hours):
 
Tides and Currents Weather Stations Pressure Air Temp Water Temp Dewpoint Dewpoint Depression Visibility Wind Speed Wind Dir Waves Ship Positions

Montauk

Last reported at 2016-Aug-24 00:33 UTC. Time now 2016-Aug-24 01:35 UTC.
Position S 05°07' E 011°12'.

Length 106 m; draft 6 m.

Type: Tanker. MMSI: 215978000.

Date/timePositionNaut miles runAvg speedWind from/ knotsBaromVisibWave heightAir tempDewpointWater temp
2016-Aug-24 00:33S 05°07' E 011°12'2 2.3
2016-Aug-23 23:33S 05°05' E 011°14'2 2.2
2016-Aug-23 22:33S 05°03' E 011°15'2 1.9
2016-Aug-23 21:33S 05°02' E 011°16'2 1.7
2016-Aug-23 20:33S 05°00' E 011°17'1 1.1
2016-Aug-23 19:31S 04°59' E 011°18'0 0.2
2016-Aug-23 18:33S 04°59' E 011°18'0 0.1
2016-Aug-23 17:33S 04°59' E 011°18'4 3.8
2016-Aug-23 16:33S 04°59' E 011°14'10 9.7
2016-Aug-23 15:33S 05°02' E 011°05'19 7.7
2016-Aug-23 13:04S 05°11' E 010°48'0 0.5
2016-Aug-23 12:25S 05°11' E 010°48'0 0.6
2016-Aug-23 11:33S 05°11' E 010°48'1 0.5
2016-Aug-23 10:33S 05°11' E 010°49'0 0.5
2016-Aug-23 09:33S 05°12' E 010°49'1 0.5
2016-Aug-23 08:33S 05°12' E 010°49'1 0.6
2016-Aug-23 07:33S 05°12' E 010°50'0 0.4
2016-Aug-23 06:33S 05°13' E 010°50'0 0.4
2016-Aug-23 05:28S 05°13' E 010°50'0 0.4
2016-Aug-23 04:24S 05°14' E 010°51'3 0.2
2016-Aug-22 09:24S 05°15' E 010°53'4 0.2
2016-Aug-21 15:21S 05°11' E 010°53'7 1.2
2016-Aug-21 09:16S 05°07' E 010°47'1 0.8
2016-Aug-21 08:33S 05°07' E 010°47'1 0.8
2016-Aug-21 07:04S 05°08' E 010°48'0 0.9
2016-Aug-21 06:33S 05°08' E 010°49'1 1.1
2016-Aug-21 05:29S 05°09' E 010°49'1 1.2
2016-Aug-21 04:33S 05°10' E 010°50'1 1.2
2016-Aug-21 03:33S 05°11' E 010°51'1 1.2
2016-Aug-21 02:33S 05°12' E 010°52'1 1.2
2016-Aug-21 01:32S 05°13' E 010°53'1 1.3
2016-Aug-21 00:31S 05°14' E 010°53'0 0.1
2016-Aug-20 22:27S 05°14' E 010°54'5 5.3
2016-Aug-20 21:33S 05°11' E 010°50'4 0.6
2016-Aug-20 15:31S 05°08' E 010°47'3 1.1
2016-Aug-20 12:28S 05°11' E 010°49'16 1.0
2016-Aug-19 21:25S 05°08' E 011°05'8 8.7
2016-Aug-19 20:33S 05°07' E 011°12'9 8.9
2016-Aug-19 19:33S 05°05' E 011°21'8 8.4
2016-Aug-19 18:33S 05°02' E 011°29'  
2016-Aug-16 09:05S 05°03' E 011°30'4 8.2
2016-Aug-16 08:33S 05°04' E 011°26'8 8.2
2016-Aug-16 07:34S 05°06' E 011°18'28 8.4
2016-Aug-16 04:15S 05°16' E 010°52'9 0.9
2016-Aug-15 18:12S 05°08' E 010°56'  

Dump ship's entire track history